createdAt,value
2023-02-25T00:00:37.009Z,95122.25
2023-02-25T00:01:38.837Z,95121.13
2023-02-25T00:02:40.726Z,95121.13
2023-02-25T00:03:42.780Z,95114.72
2023-02-25T00:04:44.739Z,95111.88
2023-02-25T00:05:46.502Z,95103.88
2023-02-25T00:06:48.286Z,95093.72
2023-02-25T00:07:50.144Z,95091.69
2023-02-25T00:08:52.720Z,95096.44
2023-02-25T00:09:54.559Z,95091.81
2023-02-25T00:10:57.106Z,95100.03
2023-02-25T00:11:59.007Z,95116.84
2023-02-25T00:13:15.962Z,95116.28
2023-02-25T00:14:19.372Z,95127.44
2023-02-25T00:15:21.238Z,95126.88
2023-02-25T00:16:23.876Z,95117.19
2023-02-25T00:17:26.022Z,95111.44
2023-02-25T00:18:28.483Z,95122.84
2023-02-25T00:19:30.310Z,95126.44
2023-02-25T00:20:32.110Z,95123.25
2023-02-25T00:21:33.990Z,95125.06
2023-02-25T00:22:36.419Z,95129.69
2023-02-25T00:23:38.909Z,95126.88
2023-02-25T00:24:40.734Z,95128.34
2023-02-25T00:25:42.711Z,95133.97
2023-02-25T00:26:44.976Z,95134.53
2023-02-25T00:27:46.766Z,95123.81
2023-02-25T00:28:49.175Z,95137.81
2023-02-25T00:29:54.111Z,95128.44
2023-02-25T00:30:56.063Z,95132.84
2023-02-25T00:31:58.124Z,95138.91
2023-02-25T00:33:00.104Z,95135.53
2023-02-25T00:34:01.988Z,95130.34
2023-02-25T00:35:04.136Z,95134.50
2023-02-25T00:36:06.830Z,95143.06
2023-02-25T00:37:08.582Z,95145.22
2023-02-25T00:38:16.037Z,95148.03
2023-02-25T00:39:18.204Z,95162.38
2023-02-25T00:40:20.016Z,95157.19
2023-02-25T00:41:23.217Z,95170.72
2023-02-25T00:42:25.041Z,95178.16
2023-02-25T00:43:26.838Z,95187.50
2023-02-25T00:44:28.656Z,95183.91
2023-02-25T00:45:30.450Z,95195.84
2023-02-25T00:46:32.994Z,95193.69
2023-02-25T00:47:34.827Z,95198.31
2023-02-25T00:48:37.306Z,95198.31
2023-02-25T00:49:39.183Z,95199.88
2023-02-25T00:50:40.997Z,95211.03
2023-02-25T00:51:42.829Z,95217.81
2023-02-25T00:52:46.751Z,95221.06
2023-02-25T00:53:48.879Z,95222.06
2023-02-25T00:54:50.736Z,95227.03
2023-02-25T00:55:58.586Z,95227.81
2023-02-25T00:57:00.437Z,95231.88
2023-02-25T00:58:02.429Z,95226.91
2023-02-25T00:59:04.158Z,95228.72
2023-02-25T01:00:16.446Z,95225.53
2023-02-25T01:01:18.333Z,95231.19
2023-02-25T01:02:20.184Z,95230.38
2023-02-25T01:03:22.056Z,95240.16
2023-02-25T01:04:24.054Z,95250.63
2023-02-25T01:05:26.011Z,95243.88
2023-02-25T01:06:28.266Z,95249.47
2023-02-25T01:07:30.170Z,95244.50
2023-02-25T01:08:31.963Z,95245.94
2023-02-25T01:09:33.803Z,95254.94
2023-02-25T01:10:35.532Z,95255.38
2023-02-25T01:11:37.452Z,95252.00
2023-02-25T01:12:39.353Z,95256.03
2023-02-25T01:13:41.362Z,95261.88
2023-02-25T01:14:45.001Z,95258.69
2023-02-25T01:15:47.000Z,95259.06
2023-02-25T01:16:49.844Z,95261.41
2023-02-25T01:17:51.620Z,95259.47
2023-02-25T01:18:54.518Z,95257.97
2023-02-25T01:19:58.104Z,95253.22
2023-02-25T01:21:00.745Z,95261.41
2023-02-25T01:22:02.673Z,95268.00
2023-02-25T01:23:04.454Z,95260.34
2023-02-25T01:24:07.842Z,95265.91
2023-02-25T01:25:14.324Z,95265.69
2023-02-25T01:26:16.269Z,95270.22
2023-02-25T01:27:18.149Z,95265.03
2023-02-25T01:28:20.108Z,95262.66
2023-02-25T01:29:26.700Z,95275.97
2023-02-25T01:30:28.540Z,95268.97
2023-02-25T01:31:31.835Z,95274.38
2023-02-25T01:32:33.794Z,95265.16
2023-02-25T01:33:38.825Z,95265.59
2023-02-25T01:34:41.227Z,95265.16
2023-02-25T01:35:42.997Z,95271.56
2023-02-25T01:36:46.234Z,95265.66
2023-02-25T01:37:50.146Z,95266.03
2023-02-25T01:38:52.074Z,95262.84
2023-02-25T01:39:54.171Z,95270.00
2023-02-25T01:41:00.181Z,95269.75
2023-02-25T01:42:03.798Z,95274.75
2023-02-25T01:43:05.935Z,95278.34
2023-02-25T01:44:12.725Z,95270.34
2023-02-25T01:45:15.451Z,95273.31
2023-02-25T01:46:17.253Z,95275.97
2023-02-25T01:47:20.397Z,95277.97
2023-02-25T01:48:27.372Z,95275.38
2023-02-25T01:49:34.585Z,95281.19
2023-02-25T01:50:40.037Z,95281.78
2023-02-25T01:51:42.556Z,95288.19
2023-02-25T01:52:45.495Z,95285.59
2023-02-25T01:53:47.620Z,95289.19
2023-02-25T01:54:51.887Z,95303.13
2023-02-25T01:55:53.996Z,95300.53
2023-02-25T01:56:56.667Z,95302.41
2023-02-25T01:58:00.206Z,95296.44
2023-02-25T01:59:02.615Z,95303.41
2023-02-25T02:00:16.499Z,95296.09
2023-02-25T02:01:20.420Z,95306.19
2023-02-25T02:02:23.539Z,95306.44
2023-02-25T02:03:27.557Z,95308.44
2023-02-25T02:04:30.522Z,95306.84
2023-02-25T02:05:39.109Z,95306.72
2023-02-25T02:06:42.789Z,95304.94
2023-02-25T02:07:44.705Z,95304.53
2023-02-25T02:08:46.697Z,95303.72
2023-02-25T02:09:57.702Z,95290.59
2023-02-25T02:10:59.722Z,95282.03
2023-02-25T02:12:03.603Z,95283.81
2023-02-25T02:13:05.597Z,95301.09
2023-02-25T02:14:09.604Z,95302.91
2023-02-25T02:15:13.167Z,95305.72
2023-02-25T02:16:14.976Z,95304.94
2023-02-25T02:17:22.871Z,95308.53
2023-02-25T02:18:25.753Z,95317.13
2023-02-25T02:19:47.841Z,95312.94
2023-02-25T02:21:06.083Z,95322.69
2023-02-25T02:22:07.854Z,95319.25
2023-02-25T02:23:24.718Z,95324.84
2023-02-25T02:24:45.984Z,95330.78
2023-02-25T02:26:06.446Z,95333.81
2023-02-25T02:27:11.467Z,95335.19
2023-02-25T02:28:22.805Z,95341.41
2023-02-25T02:29:39.603Z,95338.25
2023-02-25T02:31:04.159Z,95345.06
2023-02-25T02:32:22.464Z,95350.25
2023-02-25T02:33:29.863Z,95351.44
2023-02-25T02:34:34.383Z,95349.28
2023-02-25T02:35:41.307Z,95343.94
2023-02-25T02:36:46.077Z,95350.31
2023-02-25T02:37:57.438Z,95349.53
2023-02-25T02:39:08.635Z,95354.97
2023-02-25T02:40:28.971Z,95359.56
2023-02-25T02:41:35.440Z,95358.34
2023-02-25T02:42:41.221Z,95362.50
2023-02-25T02:43:50.734Z,95362.72
2023-02-25T02:44:56.941Z,95369.53
2023-02-25T02:46:01.481Z,95374.31
2023-02-25T02:47:05.963Z,95368.75
2023-02-25T02:48:10.467Z,95372.97
2023-02-25T02:49:24.098Z,95380.16
2023-02-25T02:50:34.452Z,95389.28
2023-02-25T02:51:41.867Z,95400.47
2023-02-25T02:52:46.549Z,95405.03
2023-02-25T02:53:53.788Z,95404.84
2023-02-25T02:55:00.290Z,95404.84
2023-02-25T02:56:04.650Z,95407.63
2023-02-25T02:57:08.694Z,95405.63
2023-02-25T02:58:26.118Z,95403.28
2023-02-25T02:59:36.837Z,95403.66
2023-02-25T03:00:41.570Z,95404.25
2023-02-25T03:01:51.931Z,95406.25
2023-02-25T03:03:07.473Z,95405.63
2023-02-25T03:04:12.763Z,95403.44
2023-02-25T03:05:17.451Z,95405.22
2023-02-25T03:06:22.478Z,95403.28
2023-02-25T03:07:24.829Z,95406.44
2023-02-25T03:08:28.999Z,95410.44
2023-02-25T03:09:33.889Z,95419.22
2023-02-25T03:10:35.802Z,95418.03
2023-02-25T03:11:37.719Z,95426.78
2023-02-25T03:12:39.618Z,95425.81
2023-02-25T03:13:41.824Z,95429.81
2023-02-25T03:14:43.858Z,95421.28
2023-02-25T03:15:46.817Z,95428.22
2023-02-25T03:16:53.808Z,95424.88
2023-02-25T03:17:59.370Z,95431.25
2023-02-25T03:19:07.087Z,95434.41
2023-02-25T03:20:08.935Z,95421.28
2023-02-25T03:21:15.426Z,95431.63
2023-02-25T03:22:20.057Z,95421.06
2023-02-25T03:23:23.412Z,95421.09
2023-02-25T03:24:32.149Z,95418.09
2023-02-25T03:25:36.788Z,95408.34
2023-02-25T03:26:38.831Z,95417.34
2023-02-25T03:27:42.897Z,95417.97
2023-02-25T03:28:46.096Z,95415.97
2023-02-25T03:29:48.639Z,95416.78
2023-02-25T03:30:57.230Z,95415.78
2023-02-25T03:32:09.895Z,95419.34
2023-02-25T03:33:14.985Z,95427.09
2023-02-25T03:34:20.231Z,95423.72
2023-02-25T03:35:23.705Z,95421.72
2023-02-25T03:36:29.242Z,95423.91
2023-02-25T03:37:32.930Z,95429.47
2023-02-25T03:38:38.172Z,95419.72
2023-02-25T03:39:42.048Z,95426.69
2023-02-25T03:40:43.906Z,95428.66
2023-02-25T03:41:47.132Z,95426.31
2023-02-25T03:42:54.122Z,95436.63
2023-02-25T03:43:57.357Z,95432.44
2023-02-25T03:45:01.120Z,95437.19
2023-02-25T03:46:03.543Z,95442.38
2023-02-25T03:47:09.404Z,95442.38
2023-02-25T03:48:12.031Z,95434.03
2023-02-25T03:49:16.916Z,95438.41
2023-02-25T03:50:27.778Z,95435.81
2023-02-25T03:51:31.864Z,95439.97
2023-02-25T03:52:33.785Z,95439.19
2023-02-25T03:53:35.955Z,95432.44
2023-02-25T03:54:38.074Z,95425.03
2023-02-25T03:55:40.041Z,95424.84
2023-02-25T03:56:46.160Z,95439.16
2023-02-25T03:57:49.932Z,95434.63
2023-02-25T03:58:51.766Z,95444.34
2023-02-25T03:59:56.631Z,95441.97
2023-02-25T04:00:58.718Z,95441.53
2023-02-25T04:02:01.252Z,95458.22
2023-02-25T04:03:03.810Z,95445.13
2023-02-25T04:04:06.232Z,95447.50
2023-02-25T04:05:09.036Z,95433.59
2023-02-25T04:06:12.365Z,95439.56
2023-02-25T04:07:14.242Z,95439.38
2023-02-25T04:08:16.295Z,95440.34
2023-02-25T04:09:18.773Z,95427.69
2023-02-25T04:10:20.968Z,95431.25
2023-02-25T04:11:22.760Z,95439.00
2023-02-25T04:12:24.532Z,95444.00
2023-02-25T04:13:26.385Z,95441.41
2023-02-25T04:14:28.144Z,95436.41
2023-02-25T04:15:30.021Z,95442.41
2023-02-25T04:16:32.106Z,95447.16
2023-02-25T04:17:34.614Z,95443.38
2023-02-25T04:18:36.484Z,95441.38
2023-02-25T04:19:38.283Z,95439.41
2023-02-25T04:20:41.174Z,95437.22
2023-02-25T04:21:42.933Z,95438.81
2023-02-25T04:22:44.839Z,95437.63
2023-02-25T04:23:46.596Z,95432.66
2023-02-25T04:24:48.416Z,95437.81
2023-02-25T04:25:50.204Z,95442.41
2023-02-25T04:26:58.672Z,95448.75
2023-02-25T04:28:00.560Z,95446.34
2023-02-25T04:29:02.641Z,95443.16
2023-02-25T04:30:04.930Z,95442.56
2023-02-25T04:31:06.956Z,95441.19
2023-02-25T04:32:09.513Z,95430.25
2023-02-25T04:33:12.162Z,95425.88
2023-02-25T04:34:14.157Z,95427.28
2023-02-25T04:35:16.060Z,95438.03
2023-02-25T04:36:26.315Z,95435.63
2023-02-25T04:37:28.677Z,95432.66
2023-02-25T04:38:30.544Z,95432.84
2023-02-25T04:39:32.945Z,95426.69
2023-02-25T04:40:35.062Z,95431.25
2023-02-25T04:41:36.911Z,95433.25
2023-02-25T04:42:39.000Z,95433.66
2023-02-25T04:43:40.864Z,95427.09
2023-02-25T04:44:42.650Z,95424.69
2023-02-25T04:45:44.459Z,95423.09
2023-02-25T04:46:46.313Z,95415.75
2023-02-25T04:47:48.141Z,95420.13
2023-02-25T04:48:50.040Z,95420.72
2023-02-25T04:49:51.799Z,95416.56
2023-02-25T04:50:53.573Z,95417.94
2023-02-25T04:51:55.404Z,95423.13
2023-02-25T04:52:59.478Z,95430.28
2023-02-25T04:54:01.313Z,95432.84
2023-02-25T04:55:03.254Z,95432.06
2023-02-25T04:56:05.822Z,95428.06
2023-02-25T04:57:08.314Z,95425.31
2023-02-25T04:58:10.110Z,95425.72
2023-02-25T04:59:12.300Z,95427.09
2023-02-25T05:00:19.412Z,95429.25
2023-02-25T05:01:21.217Z,95438.41
2023-02-25T05:02:23.211Z,95431.28
2023-02-25T05:03:25.887Z,95431.63
2023-02-25T05:04:27.909Z,95437.19
2023-02-25T05:05:29.632Z,95442.78
2023-02-25T05:06:31.416Z,95443.19
2023-02-25T05:07:33.135Z,95438.78
2023-02-25T05:08:35.446Z,95447.13
2023-02-25T05:09:37.295Z,95452.31
2023-02-25T05:10:39.075Z,95450.94
2023-02-25T05:11:40.850Z,95453.50
2023-02-25T05:12:42.827Z,95453.09
2023-02-25T05:13:44.588Z,95449.53
2023-02-25T05:14:46.552Z,95453.09
2023-02-25T05:15:48.723Z,95450.53
2023-02-25T05:16:50.793Z,95445.94
2023-02-25T05:17:52.609Z,95443.97
2023-02-25T05:18:54.458Z,95452.69
2023-02-25T05:19:56.363Z,95448.94
2023-02-25T05:20:58.161Z,95437.22
2023-02-25T05:22:00.068Z,95434.22
2023-02-25T05:23:01.951Z,95434.44
2023-02-25T05:24:04.331Z,95433.44
2023-02-25T05:25:07.690Z,95431.06
2023-02-25T05:26:10.139Z,95438.59
2023-02-25T05:27:12.034Z,95439.22
2023-02-25T05:28:13.888Z,95442.59
2023-02-25T05:29:15.639Z,95432.88
2023-02-25T05:30:17.816Z,95436.25
2023-02-25T05:31:19.956Z,95433.06
2023-02-25T05:32:22.343Z,95442.59
2023-02-25T05:33:24.604Z,95451.72
2023-02-25T05:34:26.436Z,95445.56
2023-02-25T05:35:28.254Z,95436.03
2023-02-25T05:36:30.639Z,95442.00
2023-02-25T05:37:32.753Z,95442.38
2023-02-25T05:38:34.837Z,95448.97
2023-02-25T05:39:36.630Z,95442.00
2023-02-25T05:40:42.168Z,95435.25
2023-02-25T05:41:43.914Z,95441.38
2023-02-25T05:42:49.646Z,95441.19
2023-02-25T05:43:51.468Z,95449.94
2023-02-25T05:44:53.245Z,95455.09
2023-02-25T05:45:55.911Z,95448.72
2023-02-25T05:46:57.969Z,95448.53
2023-02-25T05:48:00.168Z,95447.56
2023-02-25T05:49:01.962Z,95459.47
2023-02-25T05:50:04.020Z,95461.84
2023-02-25T05:51:07.401Z,95470.38
2023-02-25T05:52:09.790Z,95472.56
2023-02-25T05:53:11.579Z,95467.41
2023-02-25T05:54:13.317Z,95470.22
2023-02-25T05:55:16.465Z,95469.00
2023-02-25T05:56:20.841Z,95475.16
2023-02-25T05:57:24.140Z,95474.97
2023-02-25T05:58:26.072Z,95475.56
2023-02-25T05:59:27.924Z,95468.22
2023-02-25T06:00:29.696Z,95464.22
2023-02-25T06:01:32.072Z,95465.44
2023-02-25T06:02:33.819Z,95464.84
2023-02-25T06:03:35.669Z,95470.19
2023-02-25T06:04:37.428Z,95460.06
2023-02-25T06:05:44.618Z,95465.63
2023-02-25T06:06:50.473Z,95466.22
2023-02-25T06:07:52.329Z,95459.47
2023-02-25T06:08:54.329Z,95469.78
2023-02-25T06:10:00.251Z,95461.25
2023-02-25T06:11:02.487Z,95472.38
2023-02-25T06:12:04.459Z,95474.34
2023-02-25T06:13:07.208Z,95472.56
2023-02-25T06:14:08.935Z,95476.53
2023-02-25T06:15:10.957Z,95481.53
2023-02-25T06:16:12.951Z,95486.69
2023-02-25T06:17:14.908Z,95490.47
2023-02-25T06:18:16.684Z,95496.22
2023-02-25T06:19:18.524Z,95484.28
2023-02-25T06:20:20.294Z,95488.47
2023-02-25T06:21:22.113Z,95503.97
2023-02-25T06:22:23.997Z,95508.53
2023-02-25T06:23:25.816Z,95507.34
2023-02-25T06:24:27.695Z,95499.00
2023-02-25T06:25:30.167Z,95495.63
2023-02-25T06:26:32.057Z,95500.78
2023-02-25T06:27:33.864Z,95500.41
2023-02-25T06:28:36.303Z,95498.41
2023-02-25T06:29:41.870Z,95503.78
2023-02-25T06:30:43.760Z,95507.16
2023-02-25T06:31:45.949Z,95508.53
2023-02-25T06:32:47.852Z,95515.84
2023-02-25T06:33:53.625Z,95516.06
2023-02-25T06:34:55.380Z,95509.13
2023-02-25T06:35:57.142Z,95507.13
2023-02-25T06:36:59.165Z,95514.28
2023-02-25T06:38:01.027Z,95507.13
2023-02-25T06:39:02.900Z,95509.91
2023-02-25T06:40:05.519Z,95511.91
2023-02-25T06:41:08.485Z,95506.75
2023-02-25T06:42:10.552Z,95503.75
2023-02-25T06:43:12.331Z,95512.28
2023-02-25T06:44:15.789Z,95515.47
2023-02-25T06:45:17.774Z,95519.63
2023-02-25T06:46:24.593Z,95514.28
2023-02-25T06:47:26.855Z,95509.13
2023-02-25T06:48:28.652Z,95519.44
2023-02-25T06:49:31.237Z,95521.84
2023-02-25T06:50:33.605Z,95525.19
2023-02-25T06:51:35.432Z,95525.41
2023-02-25T06:52:37.153Z,95523.22
2023-02-25T06:53:39.996Z,95520.44
2023-02-25T06:54:42.000Z,95528.59
2023-02-25T06:55:43.815Z,95531.78
2023-02-25T06:56:45.636Z,95543.50
2023-02-25T06:57:47.493Z,95547.25
2023-02-25T06:58:49.763Z,95542.69
2023-02-25T06:59:53.592Z,95529.78
2023-02-25T07:00:55.461Z,95528.38
2023-02-25T07:01:57.233Z,95533.94
2023-02-25T07:02:59.083Z,95530.97
2023-02-25T07:04:01.031Z,95542.50
2023-02-25T07:05:03.358Z,95549.44
2023-02-25T07:06:05.674Z,95539.13
2023-02-25T07:07:08.297Z,95543.66
2023-02-25T07:08:10.112Z,95533.91
2023-02-25T07:09:11.986Z,95537.09
2023-02-25T07:10:13.818Z,95535.88
2023-02-25T07:11:27.360Z,95545.25
2023-02-25T07:12:29.618Z,95534.31
2023-02-25T07:13:31.458Z,95527.59
2023-02-25T07:14:33.292Z,95527.78
2023-02-25T07:15:35.445Z,95540.91
2023-02-25T07:16:37.374Z,95542.09
2023-02-25T07:17:39.205Z,95533.34
2023-02-25T07:18:41.826Z,95530.56
2023-02-25T07:19:43.655Z,95534.91
2023-02-25T07:20:45.487Z,95538.28
2023-02-25T07:21:47.270Z,95532.91
2023-02-25T07:22:49.242Z,95533.69
2023-02-25T07:23:51.158Z,95529.94
2023-02-25T07:24:53.169Z,95534.50
2023-02-25T07:25:55.001Z,95545.03
2023-02-25T07:26:56.967Z,95533.13
2023-02-25T07:27:58.756Z,95540.81
2023-02-25T07:29:00.593Z,95554.72
2023-02-25T07:30:02.561Z,95554.25
2023-02-25T07:31:08.166Z,95552.41
2023-02-25T07:32:10.311Z,95558.16
2023-02-25T07:33:12.327Z,95552.22
2023-02-25T07:34:14.677Z,95537.97
2023-02-25T07:35:16.611Z,95544.34
2023-02-25T07:36:18.702Z,95554.84
2023-02-25T07:37:20.587Z,95561.78
2023-02-25T07:38:22.326Z,95563.16
2023-02-25T07:39:24.093Z,95562.56
2023-02-25T07:40:26.064Z,95554.66
2023-02-25T07:41:29.050Z,95556.06
2023-02-25T07:42:30.916Z,95564.63
2023-02-25T07:43:32.762Z,95579.34
2023-02-25T07:44:36.210Z,95584.13
2023-02-25T07:45:38.031Z,95574.59
2023-02-25T07:46:41.262Z,95575.03
2023-02-25T07:47:43.098Z,95581.94
2023-02-25T07:48:44.869Z,95581.34
2023-02-25T07:49:46.795Z,95569.44
2023-02-25T07:50:48.594Z,95562.88
2023-02-25T07:51:50.421Z,95569.63
2023-02-25T07:52:52.253Z,95579.16
2023-02-25T07:53:55.742Z,95573.59
2023-02-25T07:54:57.778Z,95576.41
2023-02-25T07:55:59.923Z,95567.81
2023-02-25T07:57:01.864Z,95560.47
2023-02-25T07:58:05.774Z,95575.38
2023-02-25T07:59:08.705Z,95571.00
2023-02-25T08:00:10.889Z,95573.34
2023-02-25T08:01:26.142Z,95569.38
2023-02-25T08:02:28.140Z,95558.44
2023-02-25T08:03:30.212Z,95573.69
2023-02-25T08:04:32.124Z,95584.41
2023-02-25T08:05:34.710Z,95586.13
2023-02-25T08:06:38.083Z,95595.41
2023-02-25T08:07:39.836Z,95594.25
2023-02-25T08:08:41.826Z,95587.91
2023-02-25T08:09:43.881Z,95595.47
2023-02-25T08:10:45.624Z,95601.41
2023-02-25T08:11:47.536Z,95601.19
2023-02-25T08:12:49.374Z,95598.41
2023-02-25T08:13:51.728Z,95599.63
2023-02-25T08:14:53.764Z,95607.00
2023-02-25T08:15:55.595Z,95608.41
2023-02-25T08:16:57.793Z,95611.59
2023-02-25T08:17:59.663Z,95611.41
2023-02-25T08:19:01.602Z,95614.13
2023-02-25T08:20:03.769Z,95606.78
2023-02-25T08:21:05.846Z,95606.19
2023-02-25T08:22:12.102Z,95601.25
2023-02-25T08:23:13.962Z,95607.38
2023-02-25T08:24:15.808Z,95616.28
2023-02-25T08:25:17.824Z,95621.22
2023-02-25T08:26:20.868Z,95618.81
2023-02-25T08:27:22.714Z,95622.81
2023-02-25T08:28:25.307Z,95610.88
2023-02-25T08:29:27.196Z,95625.00
2023-02-25T08:30:28.885Z,95621.66
2023-02-25T08:31:31.142Z,95620.25
2023-02-25T08:32:35.513Z,95627.38
2023-02-25T08:33:38.488Z,95633.50
2023-02-25T08:34:48.809Z,95627.56
2023-02-25T08:35:51.599Z,95620.44
2023-02-25T08:36:53.648Z,95618.88
2023-02-25T08:37:55.564Z,95626.44
2023-02-25T08:39:00.373Z,95623.72
2023-02-25T08:40:02.548Z,95629.69
2023-02-25T08:41:05.067Z,95628.72
2023-02-25T08:42:06.951Z,95634.81
2023-02-25T08:43:09.038Z,95631.22
2023-02-25T08:44:12.173Z,95631.38
2023-02-25T08:45:17.166Z,95626.00
2023-02-25T08:46:21.012Z,95628.78
2023-02-25T08:47:23.250Z,95632.81
2023-02-25T08:48:25.285Z,95636.03
2023-02-25T08:49:27.066Z,95637.66
2023-02-25T08:50:30.334Z,95637.28
2023-02-25T08:51:35.954Z,95630.38
2023-02-25T08:52:39.257Z,95636.38
2023-02-25T08:53:42.412Z,95628.25
2023-02-25T08:54:44.148Z,95620.91
2023-02-25T08:55:47.648Z,95635.38
2023-02-25T08:56:52.478Z,95642.38
2023-02-25T08:57:55.371Z,95648.22
2023-02-25T08:58:57.650Z,95658.31
2023-02-25T08:59:59.577Z,95661.34
2023-02-25T09:01:01.690Z,95662.72
2023-02-25T09:02:06.524Z,95650.25
2023-02-25T09:03:08.710Z,95643.13
2023-02-25T09:04:15.237Z,95648.75
2023-02-25T09:05:19.538Z,95653.38
2023-02-25T09:06:30.420Z,95657.19
2023-02-25T09:07:32.249Z,95659.63
2023-02-25T09:08:34.121Z,95652.91
2023-02-25T09:09:35.926Z,95654.94
2023-02-25T09:10:49.451Z,95645.03
2023-02-25T09:11:52.813Z,95638.72
2023-02-25T09:12:54.864Z,95634.56
2023-02-25T09:13:56.632Z,95631.78
2023-02-25T09:14:58.523Z,95631.81
2023-02-25T09:16:00.418Z,95631.19
2023-02-25T09:17:07.842Z,95628.63
2023-02-25T09:18:09.695Z,95639.34
2023-02-25T09:19:12.725Z,95637.16
2023-02-25T09:20:14.623Z,95626.03
2023-02-25T09:21:16.443Z,95626.63
2023-02-25T09:22:19.964Z,95632.00
2023-02-25T09:23:21.814Z,95637.75
2023-02-25T09:24:24.422Z,95635.16
2023-02-25T09:25:26.366Z,95640.31
2023-02-25T09:26:28.274Z,95641.91
2023-02-25T09:27:30.144Z,95641.13
2023-02-25T09:28:31.936Z,95632.75
2023-02-25T09:29:35.105Z,95636.94
2023-02-25T09:30:36.889Z,95633.16
2023-02-25T09:31:40.033Z,95631.94
2023-02-25T09:32:42.361Z,95639.72
2023-02-25T09:33:44.699Z,95641.53
2023-02-25T09:34:46.681Z,95645.69
2023-02-25T09:35:48.558Z,95643.69
2023-02-25T09:36:50.534Z,95640.31
2023-02-25T09:37:52.344Z,95642.69
2023-02-25T09:38:54.271Z,95638.72
2023-02-25T09:39:56.097Z,95641.91
2023-02-25T09:40:58.176Z,95635.34
2023-02-25T09:42:07.914Z,95634.16
2023-02-25T09:43:19.362Z,95648.50
2023-02-25T09:44:21.184Z,95654.84
2023-02-25T09:45:24.520Z,95653.25
2023-02-25T09:46:28.283Z,95646.06
2023-02-25T09:47:45.974Z,95639.91
2023-02-25T09:49:09.637Z,95646.06
2023-02-25T09:50:14.040Z,95657.03
2023-02-25T09:51:23.233Z,95656.06
2023-02-25T09:52:32.050Z,95650.66
2023-02-25T09:53:41.946Z,95644.09
2023-02-25T09:54:45.899Z,95643.50
2023-02-25T09:55:52.435Z,95655.28
2023-02-25T09:56:55.534Z,95648.09
2023-02-25T09:57:57.265Z,95645.53
2023-02-25T09:58:59.182Z,95656.66
2023-02-25T10:00:01.065Z,95654.47
2023-02-25T10:01:05.955Z,95655.25
2023-02-25T10:02:29.844Z,95653.47
2023-02-25T10:03:50.838Z,95640.31
2023-02-25T10:05:07.112Z,95639.13
2023-02-25T10:06:17.260Z,95634.97
2023-02-25T10:07:22.750Z,95626.97
2023-02-25T10:08:30.759Z,95645.06
2023-02-25T10:09:51.673Z,95640.69
2023-02-25T10:11:15.702Z,95651.41
2023-02-25T10:12:43.816Z,95651.63
2023-02-25T10:13:49.035Z,95650.63
2023-02-25T10:15:09.003Z,95655.78
2023-02-25T10:16:22.716Z,95649.63
2023-02-25T10:17:30.600Z,95653.03
2023-02-25T10:18:39.966Z,95666.16
2023-02-25T10:20:00.358Z,95650.59
2023-02-25T10:21:08.007Z,95644.06
2023-02-25T10:22:46.037Z,95635.28
2023-02-25T10:24:02.867Z,95642.63
2023-02-25T10:25:14.629Z,95637.41
2023-02-25T10:26:29.465Z,95629.66
2023-02-25T10:27:37.666Z,95631.41
2023-02-25T10:28:41.527Z,95636.56
2023-02-25T10:29:49.724Z,95639.56
2023-02-25T10:31:14.084Z,95647.31
2023-02-25T10:32:19.539Z,95638.09
2023-02-25T10:33:24.683Z,95640.66
2023-02-25T10:34:28.122Z,95634.28
2023-02-25T10:35:32.806Z,95637.66
2023-02-25T10:36:36.779Z,95616.88
2023-02-25T10:37:38.649Z,95625.25
2023-02-25T10:38:45.544Z,95622.50
2023-02-25T10:39:48.972Z,95632.88
2023-02-25T10:40:51.748Z,95630.38
2023-02-25T10:41:54.005Z,95626.94
2023-02-25T10:42:59.757Z,95630.28
2023-02-25T10:44:01.533Z,95625.91
2023-02-25T10:45:08.628Z,95636.19
2023-02-25T10:46:20.148Z,95630.69
2023-02-25T10:47:31.095Z,95627.22
2023-02-25T10:48:32.890Z,95616.00
2023-02-25T10:49:38.691Z,95613.44
2023-02-25T10:50:46.187Z,95610.31
2023-02-25T10:51:59.091Z,95622.59
2023-02-25T10:53:06.814Z,95627.41
2023-02-25T10:54:14.157Z,95619.97
2023-02-25T10:55:25.652Z,95631.19
2023-02-25T10:56:31.439Z,95635.59
2023-02-25T10:57:43.115Z,95629.75
2023-02-25T10:58:47.482Z,95627.91
2023-02-25T10:59:59.357Z,95633.16
2023-02-25T11:01:05.005Z,95616.31
2023-02-25T11:02:26.135Z,95618.88
2023-02-25T11:03:30.374Z,95609.84
2023-02-25T11:04:37.757Z,95604.81
2023-02-25T11:05:41.298Z,95612.59
2023-02-25T11:06:44.432Z,95610.97
2023-02-25T11:07:47.820Z,95614.50
2023-02-25T11:08:49.697Z,95613.88
2023-02-25T11:10:06.472Z,95615.16
2023-02-25T11:11:26.964Z,95613.56
2023-02-25T11:12:32.346Z,95616.34
2023-02-25T11:13:35.909Z,95604.13
2023-02-25T11:14:38.863Z,95601.91
2023-02-25T11:15:45.669Z,95598.47
2023-02-25T11:16:47.961Z,95599.16
2023-02-25T11:17:49.786Z,95594.50
2023-02-25T11:18:53.632Z,95600.47
2023-02-25T11:20:02.556Z,95605.09
2023-02-25T11:21:09.442Z,95597.50
2023-02-25T11:22:19.964Z,95598.75
2023-02-25T11:23:23.983Z,95603.06
2023-02-25T11:24:33.836Z,95603.94
2023-02-25T11:25:39.216Z,95603.34
2023-02-25T11:26:43.589Z,95609.25
2023-02-25T11:27:49.978Z,95605.47
2023-02-25T11:28:51.783Z,95596.69
2023-02-25T11:29:53.797Z,95591.06
2023-02-25T11:30:56.930Z,95592.72
2023-02-25T11:32:08.609Z,95587.47
2023-02-25T11:33:22.438Z,95591.06
2023-02-25T11:34:27.134Z,95596.69
2023-02-25T11:35:39.384Z,95598.16
2023-02-25T11:36:41.336Z,95591.38
2023-02-25T11:37:49.785Z,95582.16
2023-02-25T11:39:04.410Z,95585.75
2023-02-25T11:40:26.302Z,95592.38
2023-02-25T11:41:31.676Z,95590.81
2023-02-25T11:42:33.681Z,95591.84
2023-02-25T11:43:35.994Z,95593.09
2023-02-25T11:44:45.012Z,95588.03
2023-02-25T11:45:52.102Z,95593.03
2023-02-25T11:47:12.779Z,95594.31
2023-02-25T11:48:19.849Z,95589.34
2023-02-25T11:49:29.687Z,95588.13
2023-02-25T11:50:54.466Z,95583.50
2023-02-25T11:52:06.171Z,95578.59
2023-02-25T11:53:15.000Z,95577.81
2023-02-25T11:54:20.060Z,95572.81
2023-02-25T11:55:37.819Z,95578.97
2023-02-25T11:57:04.566Z,95580.72
2023-02-25T11:58:25.224Z,95578.78
2023-02-25T11:59:30.757Z,95573.34
2023-02-25T12:00:50.790Z,95574.56
2023-02-25T12:02:01.918Z,95584.84
2023-02-25T12:03:18.942Z,95581.16
2023-02-25T12:04:26.497Z,95587.50
2023-02-25T12:05:43.890Z,95585.16
2023-02-25T12:07:03.612Z,95581.50
2023-02-25T12:08:15.688Z,95580.31
2023-02-25T12:09:29.508Z,95574.75
2023-02-25T12:10:34.430Z,95567.56
2023-02-25T12:11:45.384Z,95565.59
2023-02-25T12:13:03.330Z,95552.91
2023-02-25T12:14:08.117Z,95558.09
2023-02-25T12:15:48.554Z,95563.28
2023-02-25T12:17:08.625Z,95562.44
2023-02-25T12:18:13.368Z,95558.88
2023-02-25T12:19:27.088Z,95562.69
2023-02-25T12:20:29.756Z,95561.69
2023-02-25T12:21:31.717Z,95554.34
2023-02-25T12:22:34.737Z,95550.56
2023-02-25T12:23:42.714Z,95545.22
2023-02-25T12:24:44.672Z,95544.41
2023-02-25T12:25:58.395Z,95544.59
2023-02-25T12:27:06.370Z,95544.00
2023-02-25T12:28:16.940Z,95544.06
2023-02-25T12:29:21.530Z,95544.88
2023-02-25T12:30:33.087Z,95543.03
2023-02-25T12:31:47.256Z,95548.03
2023-02-25T12:32:49.082Z,95546.41
2023-02-25T12:33:53.741Z,95533.84
2023-02-25T12:35:12.867Z,95539.25
2023-02-25T12:36:33.332Z,95536.44
2023-02-25T12:37:58.570Z,95540.00
2023-02-25T12:39:19.998Z,95548.16
2023-02-25T12:40:40.296Z,95540.97
2023-02-25T12:42:09.577Z,95543.38